createdAt,value
2022-12-19T00:00:17.293Z,-0.7
2022-12-19T00:03:10.580Z,-0.7
2022-12-19T00:06:09.582Z,-0.6
2022-12-19T00:09:09.516Z,-0.6
2022-12-19T00:12:18.958Z,-0.6
2022-12-19T00:15:10.767Z,-0.6
2022-12-19T00:18:09.643Z,-0.6
2022-12-19T00:21:09.555Z,-0.6
2022-12-19T00:24:25.324Z,-0.6
2022-12-19T00:27:10.972Z,-0.6
2022-12-19T00:30:09.525Z,-0.6
2022-12-19T00:33:09.459Z,-0.5
2022-12-19T00:36:09.547Z,-0.5
2022-12-19T00:39:14.860Z,-0.4
2022-12-19T00:42:09.524Z,-0.4
2022-12-19T00:45:09.525Z,-0.4
2022-12-19T00:48:12.644Z,-0.4
2022-12-19T00:51:11.600Z,-0.4
2022-12-19T00:54:15.094Z,-0.4
2022-12-19T00:57:09.515Z,-0.4
2022-12-19T01:00:09.570Z,-0.4
2022-12-19T01:03:13.303Z,-0.4
2022-12-19T01:06:10.835Z,-0.4
2022-12-19T01:09:09.556Z,-0.3
2022-12-19T01:12:09.584Z,-0.3
2022-12-19T01:15:14.140Z,-0.3
2022-12-19T01:18:09.541Z,-0.2
2022-12-19T01:21:09.647Z,-0.1
2022-12-19T01:24:09.547Z,-0.1
2022-12-19T01:27:09.573Z,-0.1
2022-12-19T01:30:11.848Z,-0.1
2022-12-19T01:33:09.589Z,-0.1
2022-12-19T01:36:09.508Z,0
2022-12-19T01:39:09.490Z,0
2022-12-19T01:42:09.603Z,0
2022-12-19T01:45:12.281Z,0.1
2022-12-19T01:48:09.524Z,0.1
2022-12-19T01:51:11.594Z,0.1
2022-12-19T01:54:09.516Z,0.1
2022-12-19T01:57:09.518Z,0.1
2022-12-19T02:00:09.623Z,0.2
2022-12-19T02:03:16.694Z,0.2
2022-12-19T02:06:09.540Z,0.2
2022-12-19T02:09:09.526Z,0.2
2022-12-19T02:12:09.695Z,0.3
2022-12-19T02:15:12.565Z,0.3
2022-12-19T02:18:09.550Z,0.3
2022-12-19T02:21:09.574Z,0.3
2022-12-19T02:24:09.550Z,0.4
2022-12-19T02:27:09.556Z,0.4
2022-12-19T02:30:09.588Z,0.6
2022-12-19T02:33:09.569Z,0.5
2022-12-19T02:36:09.656Z,0.6
2022-12-19T02:39:09.550Z,0.6
2022-12-19T02:42:09.647Z,0.6
2022-12-19T02:45:09.611Z,0.6
2022-12-19T02:48:23.773Z,0.6
2022-12-19T02:51:09.599Z,0.7
2022-12-19T02:54:09.570Z,0.7
2022-12-19T02:57:09.602Z,0.7
2022-12-19T03:00:11.897Z,0.7
2022-12-19T03:03:11.358Z,0.7
2022-12-19T03:06:09.577Z,0.7
2022-12-19T03:09:09.609Z,0.7
2022-12-19T03:12:12.819Z,0.7
2022-12-19T03:15:09.734Z,0.7
2022-12-19T03:18:10.348Z,0.7
2022-12-19T03:21:09.598Z,0.7
2022-12-19T03:24:09.580Z,0.7
2022-12-19T03:27:09.660Z,0.7
2022-12-19T03:30:09.647Z,0.7
2022-12-19T03:33:09.720Z,0.7
2022-12-19T03:36:10.756Z,0.7
2022-12-19T03:39:10.711Z,0.7
2022-12-19T03:42:09.924Z,0.7
2022-12-19T03:45:09.691Z,0.7
2022-12-19T03:48:09.620Z,0.7
2022-12-19T03:51:09.594Z,0.7
2022-12-19T03:54:09.674Z,0.7
2022-12-19T03:57:09.543Z,0.7
2022-12-19T04:00:09.705Z,0.7
2022-12-19T04:03:09.974Z,0.9
2022-12-19T04:06:09.727Z,0.9
2022-12-19T04:09:09.645Z,0.9
2022-12-19T04:12:09.608Z,0.9
2022-12-19T04:15:09.685Z,1
2022-12-19T04:18:10.098Z,1.1
2022-12-19T04:21:09.622Z,1.1
2022-12-19T04:24:09.579Z,1.1
2022-12-19T04:27:09.669Z,1.2
2022-12-19T04:30:09.606Z,1.2
2022-12-19T04:33:12.305Z,1.2
2022-12-19T04:36:09.699Z,1.2
2022-12-19T04:39:09.582Z,1.3
2022-12-19T04:42:09.609Z,1.3
2022-12-19T04:45:11.340Z,1.3
2022-12-19T04:48:12.447Z,1.3
2022-12-19T04:51:09.694Z,1.3
2022-12-19T04:54:09.693Z,1.3
2022-12-19T04:57:09.550Z,1.4
2022-12-19T05:00:09.884Z,1.4
2022-12-19T05:03:10.454Z,1.4
2022-12-19T05:06:09.649Z,1.5
2022-12-19T05:09:09.717Z,1.6
2022-12-19T05:12:09.990Z,1.7
2022-12-19T05:15:09.669Z,1.7
2022-12-19T05:18:09.622Z,1.7
2022-12-19T05:21:09.565Z,1.7
2022-12-19T05:24:09.598Z,1.7
2022-12-19T05:27:09.831Z,1.7
2022-12-19T05:30:09.680Z,1.7
2022-12-19T05:33:09.613Z,1.7
2022-12-19T05:36:09.588Z,1.7
2022-12-19T05:39:09.642Z,1.7
2022-12-19T05:42:14.870Z,1.7
2022-12-19T05:45:09.700Z,1.7
2022-12-19T05:48:13.863Z,1.8
2022-12-19T05:51:09.723Z,1.9
2022-12-19T05:54:10.447Z,1.9
2022-12-19T05:57:09.786Z,1.9
2022-12-19T06:00:09.621Z,1.9
2022-12-19T06:03:10.520Z,0
2022-12-19T06:06:09.670Z,0
2022-12-19T06:09:09.586Z,0
2022-12-19T06:12:09.666Z,0.1
2022-12-19T06:15:09.656Z,0.1
2022-12-19T06:18:09.555Z,0.1
2022-12-19T06:21:09.592Z,0.1
2022-12-19T06:24:09.621Z,0.1
2022-12-19T06:27:09.664Z,0.2
2022-12-19T06:30:10.735Z,0.3
2022-12-19T06:33:10.512Z,0.3
2022-12-19T06:36:09.555Z,0.3
2022-12-19T06:39:09.689Z,0.3
2022-12-19T06:42:09.637Z,0.3
2022-12-19T06:45:09.676Z,0.3
2022-12-19T06:48:09.657Z,0.3
2022-12-19T06:51:09.618Z,0.3
2022-12-19T06:54:09.641Z,0.3
2022-12-19T06:57:09.609Z,0.3
2022-12-19T07:00:10.642Z,0.3
2022-12-19T07:03:10.235Z,0.3
2022-12-19T07:06:09.573Z,0.4
2022-12-19T07:09:09.572Z,0.4
2022-12-19T07:12:09.701Z,0.4
2022-12-19T07:15:09.743Z,0.4
2022-12-19T07:18:09.620Z,0.6
2022-12-19T07:21:09.549Z,0.6
2022-12-19T07:24:10.585Z,0.8
2022-12-19T07:27:09.605Z,0.8
2022-12-19T07:30:10.686Z,0.8
2022-12-19T07:33:17.035Z,0.8
2022-12-19T07:36:09.637Z,0.9
2022-12-19T07:39:10.215Z,0.9
2022-12-19T07:42:09.638Z,0.9
2022-12-19T07:45:09.763Z,0.9
2022-12-19T07:48:09.588Z,0.9
2022-12-19T07:51:09.671Z,1
2022-12-19T07:54:10.733Z,1.3
2022-12-19T07:57:09.731Z,1.4
2022-12-19T08:00:10.497Z,1.7
2022-12-19T08:03:12.589Z,1.8
2022-12-19T08:06:09.732Z,1.8
2022-12-19T08:09:09.767Z,1.9
2022-12-19T08:12:09.714Z,1.9
2022-12-19T08:15:10.998Z,1.9
2022-12-19T08:18:09.844Z,1.9
2022-12-19T08:21:09.722Z,2.1
2022-12-19T08:24:09.691Z,2.4
2022-12-19T08:27:09.743Z,2.7
2022-12-19T08:30:11.430Z,3.1
2022-12-19T08:33:09.637Z,3.2
2022-12-19T08:36:09.623Z,3.2
2022-12-19T08:39:09.615Z,3.3
2022-12-19T08:42:09.608Z,3.4
2022-12-19T08:45:09.666Z,3.5
2022-12-19T08:48:09.583Z,3.5
2022-12-19T08:51:09.706Z,3.5
2022-12-19T08:54:16.272Z,3.5
2022-12-19T08:57:09.746Z,3.5
2022-12-19T09:00:12.908Z,3.5
2022-12-19T09:03:15.634Z,3.5
2022-12-19T09:06:26.345Z,3.4
2022-12-19T09:09:09.889Z,3.4
2022-12-19T09:12:09.788Z,3.4
2022-12-19T09:15:09.833Z,3.4
2022-12-19T09:18:09.713Z,3.5
2022-12-19T09:21:14.497Z,3.6
2022-12-19T09:24:17.046Z,3.7
2022-12-19T09:27:09.659Z,3.7
2022-12-19T09:30:09.652Z,3.9
2022-12-19T09:33:10.931Z,3.9
2022-12-19T09:36:09.829Z,3.9
2022-12-19T09:39:09.854Z,3.9
2022-12-19T09:42:09.674Z,3.9
2022-12-19T09:45:14.590Z,3.8
2022-12-19T09:48:25.911Z,3.9
2022-12-19T09:51:20.116Z,3.9
2022-12-19T09:54:09.639Z,4
2022-12-19T09:57:09.678Z,3.9
2022-12-19T10:00:09.856Z,3.8
2022-12-19T10:03:10.805Z,3.7
2022-12-19T10:15:09.692Z,3.9
2022-12-19T10:18:09.834Z,3.9
2022-12-19T10:21:09.728Z,4.1
2022-12-19T10:24:09.645Z,4.5
2022-12-19T10:27:09.712Z,4.7
2022-12-19T10:30:09.891Z,4.8
2022-12-19T10:33:16.109Z,4.8
2022-12-19T10:36:14.134Z,4.7
2022-12-19T10:39:09.807Z,4.8
2022-12-19T10:42:09.725Z,4.7
2022-12-19T10:45:09.717Z,4.7
2022-12-19T10:48:09.665Z,4.7
2022-12-19T10:51:16.057Z,4.7
2022-12-19T10:54:09.871Z,4.8
2022-12-19T10:57:09.863Z,4.8
2022-12-19T11:00:09.870Z,4.9
2022-12-19T11:03:11.434Z,4.9
2022-12-19T11:06:09.749Z,4.9
2022-12-19T11:09:09.851Z,4.9
2022-12-19T11:33:09.864Z,5
2022-12-19T11:36:09.785Z,5.1
2022-12-19T11:39:09.622Z,5.2
2022-12-19T11:42:09.672Z,5.3
2022-12-19T11:45:09.726Z,5.4
2022-12-19T11:48:09.722Z,5.4
2022-12-19T11:51:11.461Z,5.4
2022-12-19T11:54:09.703Z,5.5
2022-12-19T11:57:09.671Z,5.6
2022-12-19T12:00:14.791Z,5.6
2022-12-19T12:03:10.002Z,5.7
2022-12-19T12:06:09.595Z,5.7
2022-12-19T12:39:11.006Z,5.8
2022-12-19T12:42:09.809Z,5.8
2022-12-19T12:45:09.809Z,5.8
2022-12-19T12:51:09.733Z,5.9
2022-12-19T12:54:10.212Z,6
2022-12-19T12:57:09.713Z,6
2022-12-19T13:00:09.985Z,6
2022-12-19T13:03:10.995Z,6
2022-12-19T13:06:09.700Z,6
2022-12-19T13:09:09.672Z,5.9
2022-12-19T13:12:09.732Z,5.9
2022-12-19T13:15:09.741Z,6.1
2022-12-19T13:18:09.768Z,6.1
2022-12-19T13:21:09.769Z,6.1
2022-12-19T13:24:20.321Z,6.2
2022-12-19T13:27:09.802Z,6.2
2022-12-19T13:30:10.059Z,6.2
2022-12-19T13:33:09.668Z,6.1
2022-12-19T13:42:09.708Z,6.1
2022-12-19T13:45:09.650Z,6.2
2022-12-19T13:48:12.872Z,6.2
2022-12-19T13:51:09.710Z,6.4
2022-12-19T13:54:09.743Z,6.4
2022-12-19T13:57:18.441Z,6.4
2022-12-19T14:00:10.787Z,6.4
2022-12-19T14:03:11.064Z,6.4
2022-12-19T14:06:28.489Z,6.4
2022-12-19T14:15:23.100Z,6.1
2022-12-19T14:18:54.751Z,6.1
2022-12-19T14:24:09.914Z,5.9
2022-12-19T14:30:41.655Z,5.7
2022-12-19T14:36:32.659Z,5.7
2022-12-19T14:39:37.862Z,5.7
2022-12-19T14:42:11.661Z,5.8
2022-12-19T14:57:12.009Z,6.1
2022-12-19T15:03:18.758Z,6.3
2022-12-19T15:15:10.250Z,6.4
2022-12-19T15:18:09.630Z,6.5
2022-12-19T15:21:09.698Z,6.5
2022-12-19T15:24:09.642Z,6.6
2022-12-19T15:27:09.603Z,6.6
2022-12-19T15:30:09.740Z,6.7
2022-12-19T15:33:09.620Z,6.8
2022-12-19T15:36:09.652Z,6.9
2022-12-19T15:39:09.669Z,6.8
2022-12-19T15:42:09.725Z,6.9
2022-12-19T15:45:09.855Z,6.8
2022-12-19T15:48:09.797Z,6.8
2022-12-19T15:51:09.651Z,6.7
2022-12-19T15:54:58.137Z,6.7
2022-12-19T15:57:09.712Z,6.8
2022-12-19T16:00:09.740Z,6.9
2022-12-19T16:03:36.066Z,6.9
2022-12-19T16:06:09.551Z,7
2022-12-19T16:09:09.632Z,7
2022-12-19T16:12:09.662Z,6.9
2022-12-19T16:15:09.638Z,6.9
2022-12-19T16:18:09.648Z,6.8
2022-12-19T16:21:09.642Z,6.8
2022-12-19T16:24:09.647Z,6.7
2022-12-19T16:27:09.663Z,6.7
2022-12-19T16:30:12.267Z,6.7
2022-12-19T16:33:10.430Z,6.6
2022-12-19T16:36:15.853Z,6.6
2022-12-19T16:39:09.644Z,6.7
2022-12-19T16:42:09.646Z,6.7
2022-12-19T16:45:09.803Z,6.9
2022-12-19T16:48:09.592Z,7.1
2022-12-19T16:51:09.549Z,7.2
2022-12-19T16:54:09.912Z,7.1
2022-12-19T16:57:09.672Z,7.2
2022-12-19T17:00:09.697Z,7.1
2022-12-19T17:03:10.765Z,7.1
2022-12-19T17:06:09.700Z,7.1
2022-12-19T17:09:09.637Z,7.1
2022-12-19T17:12:09.579Z,7.2
2022-12-19T17:15:09.656Z,7.2
2022-12-19T17:18:09.623Z,7.1
2022-12-19T17:21:09.644Z,6.9
2022-12-19T17:24:09.637Z,6.9
2022-12-19T17:27:09.650Z,7
2022-12-19T17:30:09.737Z,7.1
2022-12-19T17:33:09.548Z,7.1
2022-12-19T17:36:09.818Z,7.1
2022-12-19T17:39:09.671Z,7.1
2022-12-19T17:42:09.589Z,6.9
2022-12-19T17:45:09.582Z,6.7
2022-12-19T17:48:12.241Z,6.6
2022-12-19T17:51:09.552Z,6.5
2022-12-19T17:54:10.572Z,6.4
2022-12-19T17:57:09.659Z,6.5
2022-12-19T18:00:09.675Z,6.4
2022-12-19T18:03:10.834Z,6.4
2022-12-19T18:06:16.974Z,6.6
2022-12-19T18:09:09.560Z,6.7
2022-12-19T18:12:09.704Z,6.6
2022-12-19T18:15:09.561Z,6.4
2022-12-19T18:18:09.599Z,6.2
2022-12-19T18:21:09.679Z,6.1
2022-12-19T18:24:09.655Z,6.1
2022-12-19T18:27:09.708Z,6.2
2022-12-19T18:30:09.751Z,6.4
2022-12-19T18:33:09.666Z,6.5
2022-12-19T18:36:09.692Z,6.6
2022-12-19T18:39:09.569Z,6.6
2022-12-19T18:42:09.604Z,6.7
2022-12-19T18:45:09.718Z,6.7
2022-12-19T18:48:09.673Z,6.7
2022-12-19T18:51:10.026Z,6.7
2022-12-19T18:54:09.660Z,6.7
2022-12-19T18:57:10.359Z,6.7
2022-12-19T19:00:09.614Z,6.7
2022-12-19T19:03:11.277Z,6.8
2022-12-19T19:06:11.140Z,6.9
2022-12-19T19:09:09.547Z,6.9
2022-12-19T19:12:09.605Z,6.9
2022-12-19T19:15:09.650Z,6.8
2022-12-19T19:18:09.713Z,6.7
2022-12-19T19:21:10.583Z,6.7
2022-12-19T19:24:09.623Z,6.6
2022-12-19T19:27:09.674Z,6.4
2022-12-19T19:30:09.633Z,6.2
2022-12-19T19:33:09.677Z,6.4
2022-12-19T19:36:20.599Z,6.4
2022-12-19T19:39:09.725Z,7.2
2022-12-19T19:42:09.728Z,7.8
2022-12-19T19:45:09.583Z,8.1
2022-12-19T19:48:09.609Z,8.1
2022-12-19T19:51:09.588Z,8.2
2022-12-19T19:54:09.818Z,8.3
2022-12-19T19:57:09.519Z,8.3
2022-12-19T20:00:09.771Z,8.3
2022-12-19T20:03:28.373Z,8.3
2022-12-19T20:06:09.993Z,8.4
2022-12-19T20:09:09.692Z,8.3
2022-12-19T20:12:09.674Z,8.3
2022-12-19T20:15:09.668Z,8.3
2022-12-19T20:18:09.641Z,8.3
2022-12-19T20:21:17.586Z,8.3
2022-12-19T20:24:09.615Z,8.4
2022-12-19T20:27:09.665Z,8.6
2022-12-19T20:30:09.633Z,8.8
2022-12-19T20:33:09.592Z,8.8
2022-12-19T20:36:09.594Z,8.8
2022-12-19T20:39:09.566Z,8.9
2022-12-19T20:42:09.597Z,9
2022-12-19T20:45:09.537Z,9
2022-12-19T20:48:09.571Z,9.1
2022-12-19T20:51:09.580Z,9
2022-12-19T20:54:09.602Z,9
2022-12-19T20:57:09.608Z,9.1
2022-12-19T21:00:09.730Z,9.1
2022-12-19T21:03:39.490Z,9.1
2022-12-19T21:06:09.670Z,9.1
2022-12-19T21:09:09.595Z,9.1
2022-12-19T21:12:09.660Z,9.1
2022-12-19T21:15:09.635Z,9.3
2022-12-19T21:18:09.659Z,9.3
2022-12-19T21:21:09.629Z,9.2
2022-12-19T21:24:09.683Z,9.1
2022-12-19T21:27:09.918Z,9
2022-12-19T21:30:09.618Z,8.9
2022-12-19T21:33:09.617Z,8.9
2022-12-19T21:36:09.657Z,8.9
2022-12-19T21:39:09.774Z,9.1
2022-12-19T21:42:09.548Z,9.3
2022-12-19T21:45:09.915Z,9.5
2022-12-19T21:48:09.602Z,9.6
2022-12-19T21:51:09.666Z,9.5
2022-12-19T21:54:09.620Z,9.6
2022-12-19T21:57:09.853Z,9.7
2022-12-19T22:00:09.794Z,9.6
2022-12-19T22:03:25.284Z,9.6
2022-12-19T22:06:09.609Z,9.4
2022-12-19T22:09:09.586Z,9.4
2022-12-19T22:12:09.681Z,9.5
2022-12-19T22:15:09.601Z,9.5
2022-12-19T22:18:09.590Z,9.6
2022-12-19T22:21:09.637Z,9.4
2022-12-19T22:24:09.587Z,9.5
2022-12-19T22:27:09.772Z,9.5
2022-12-19T22:30:19.960Z,9.6
2022-12-19T22:33:09.621Z,9.5
2022-12-19T22:36:11.762Z,9.3
2022-12-19T22:39:09.658Z,9.2
2022-12-19T22:42:09.618Z,9.2
2022-12-19T22:45:09.852Z,9.2
2022-12-19T22:48:09.621Z,9.1
2022-12-19T22:51:09.607Z,9
2022-12-19T22:54:09.614Z,9
2022-12-19T22:57:09.594Z,9
2022-12-19T23:00:10.024Z,8.9
2022-12-19T23:03:11.037Z,8.9
2022-12-19T23:06:09.582Z,8.9
2022-12-19T23:09:09.603Z,8.9
2022-12-19T23:12:09.624Z,8.9
2022-12-19T23:15:09.562Z,8.9
2022-12-19T23:18:09.680Z,9.1
2022-12-19T23:21:16.094Z,9.1
2022-12-19T23:24:09.599Z,9.1
2022-12-19T23:27:09.599Z,9.1
2022-12-19T23:30:09.609Z,9.2
2022-12-19T23:33:09.630Z,9.2
2022-12-19T23:36:09.644Z,9.3
2022-12-19T23:39:09.622Z,9.3
2022-12-19T23:42:10.209Z,9.3
2022-12-19T23:45:09.589Z,9.4
2022-12-19T23:48:09.614Z,9.2
2022-12-19T23:51:09.684Z,9
2022-12-19T23:54:09.738Z,8.8
2022-12-19T23:57:09.641Z,8.8
